createdAt,value
2018-03-25T00:01:32.470Z,50.00
2018-03-25T00:04:00.822Z,49.27
2018-03-25T00:06:29.243Z,56.30
2018-03-25T00:08:57.668Z,57.83
2018-03-25T00:11:26.080Z,59.80
2018-03-25T00:13:54.546Z,58.20
2018-03-25T00:16:22.901Z,59.77
2018-03-25T00:18:51.284Z,58.53
2018-03-25T00:21:19.697Z,55.20
2018-03-25T00:23:48.081Z,49.30
2018-03-25T00:26:16.508Z,54.53
2018-03-25T00:28:44.952Z,56.00
2018-03-25T00:31:13.317Z,58.90
2018-03-25T00:33:41.673Z,54.47
2018-03-25T00:36:10.150Z,54.60
2018-03-25T00:38:39.303Z,53.63
2018-03-25T00:41:07.716Z,51.00
2018-03-25T00:43:36.105Z,52.57
2018-03-25T00:46:04.541Z,55.93
2018-03-25T00:48:33.655Z,55.07
2018-03-25T00:51:02.060Z,60.33
2018-03-25T00:53:30.466Z,46.93
2018-03-25T00:55:58.904Z,51.33
2018-03-25T00:58:27.330Z,55.83
2018-03-25T01:00:55.708Z,54.90
2018-03-25T01:03:24.154Z,54.63
2018-03-25T01:05:52.577Z,55.57
2018-03-25T01:08:21.005Z,52.97
2018-03-25T01:10:49.447Z,53.37
2018-03-25T01:13:18.600Z,55.10
2018-03-25T01:15:58.888Z,60.97
2018-03-25T01:18:27.247Z,54.40
2018-03-25T01:20:55.638Z,52.03
2018-03-25T01:23:24.042Z,54.97
2018-03-25T01:25:53.208Z,51.93
2018-03-25T01:28:21.565Z,54.80
2018-03-25T01:30:50.052Z,56.23
2018-03-25T01:33:18.400Z,56.80
2018-03-25T01:35:46.805Z,55.67
2018-03-25T01:38:15.180Z,56.93
2018-03-25T01:40:43.608Z,52.97
2018-03-25T01:43:12.752Z,53.70
2018-03-25T01:45:41.186Z,60.60
2018-03-25T01:48:10.380Z,53.53
2018-03-25T01:50:38.763Z,64.17
2018-03-25T01:53:07.191Z,61.77
2018-03-25T01:55:35.568Z,66.13
2018-03-25T01:58:04.011Z,62.23
2018-03-25T02:00:32.855Z,67.63
2018-03-25T02:03:01.208Z,54.30
2018-03-25T02:05:29.598Z,66.93
2018-03-25T02:07:58.017Z,52.87
2018-03-25T02:10:27.198Z,68.77
2018-03-25T02:12:56.356Z,59.60
2018-03-25T02:15:24.795Z,66.17
2018-03-25T02:17:53.150Z,64.63
2018-03-25T02:20:22.338Z,67.60
2018-03-25T02:22:50.756Z,73.83
2018-03-25T02:25:19.183Z,75.20
2018-03-25T02:27:47.605Z,68.00
2018-03-25T02:30:16.005Z,77.87
2018-03-25T02:32:44.441Z,71.27
2018-03-25T02:35:13.640Z,76.37
2018-03-25T02:37:42.772Z,80.33
2018-03-25T02:40:11.157Z,70.70
2018-03-25T02:42:39.613Z,75.50
2018-03-25T02:45:08.055Z,73.03
2018-03-25T02:47:36.437Z,73.53
2018-03-25T02:50:04.827Z,75.17
2018-03-25T02:52:33.979Z,65.47
2018-03-25T02:55:02.443Z,73.47
2018-03-25T02:57:30.846Z,69.17
2018-03-25T02:59:59.277Z,63.20
2018-03-25T03:02:27.678Z,68.13
2018-03-25T03:04:56.126Z,76.80
2018-03-25T03:07:25.276Z,75.83
2018-03-25T03:09:54.017Z,78.27
2018-03-25T03:12:22.363Z,70.13
2018-03-25T03:14:50.734Z,75.10
2018-03-25T03:17:19.167Z,72.07
2018-03-25T03:19:47.575Z,83.37
2018-03-25T03:22:16.021Z,87.67
2018-03-25T03:24:44.378Z,69.07
2018-03-25T03:27:12.805Z,72.33
2018-03-25T03:29:41.195Z,77.50
2018-03-25T03:32:09.595Z,78.40
2018-03-25T03:34:38.001Z,66.03
2018-03-25T03:37:06.377Z,60.73
2018-03-25T03:39:34.758Z,66.67
2018-03-25T03:42:03.173Z,56.00
2018-03-25T03:44:31.551Z,70.23
2018-03-25T03:46:59.962Z,74.90
2018-03-25T03:49:28.339Z,69.30
2018-03-25T03:51:56.779Z,68.90
2018-03-25T03:54:25.160Z,70.03
2018-03-25T03:56:53.814Z,63.67
2018-03-25T03:59:22.217Z,75.83
2018-03-25T04:01:50.604Z,70.30
2018-03-25T04:04:18.974Z,71.73
2018-03-25T04:06:47.384Z,66.33
2018-03-25T04:09:15.744Z,66.23
2018-03-25T04:11:44.622Z,63.07
2018-03-25T04:14:13.041Z,67.77
2018-03-25T04:16:42.191Z,72.07
2018-03-25T04:19:10.635Z,60.43
2018-03-25T04:21:39.015Z,59.23
2018-03-25T04:24:07.414Z,63.60
2018-03-25T04:26:35.815Z,64.83
2018-03-25T04:29:04.225Z,60.67
2018-03-25T04:31:32.636Z,62.00
2018-03-25T04:34:01.049Z,59.53
2018-03-25T04:36:29.428Z,65.33
2018-03-25T04:38:57.816Z,52.20
2018-03-25T04:41:26.294Z,43.03
2018-03-25T04:43:54.662Z,63.07
2018-03-25T04:46:23.043Z,60.80
2018-03-25T04:48:51.436Z,57.00
2018-03-25T04:51:19.827Z,45.73
2018-03-25T04:53:48.205Z,55.63
2018-03-25T04:56:16.592Z,58.23
2018-03-25T04:58:45.766Z,51.33
2018-03-25T05:01:14.198Z,51.20
2018-03-25T05:03:42.585Z,53.73
2018-03-25T05:06:11.020Z,56.10
2018-03-25T05:08:40.193Z,51.40
2018-03-25T05:11:08.604Z,56.10
2018-03-25T05:13:37.752Z,55.07
2018-03-25T05:16:06.192Z,56.67
2018-03-25T05:18:34.582Z,53.00
2018-03-25T05:21:03.056Z,56.40
2018-03-25T05:23:31.483Z,50.13
2018-03-25T05:25:59.892Z,49.30
2018-03-25T05:28:29.046Z,50.73
2018-03-25T05:30:57.413Z,53.47
2018-03-25T05:33:25.926Z,51.03
2018-03-25T05:35:55.085Z,51.07
2018-03-25T05:38:23.500Z,47.97
2018-03-25T05:40:52.297Z,47.87
2018-03-25T05:43:21.461Z,54.20
2018-03-25T05:45:49.864Z,48.30
2018-03-25T05:48:18.250Z,49.13
2018-03-25T05:50:47.412Z,54.50
2018-03-25T05:53:15.824Z,57.70
2018-03-25T05:55:44.969Z,47.07
2018-03-25T05:58:13.385Z,53.37
2018-03-25T06:00:41.800Z,55.50
2018-03-25T06:03:10.202Z,49.30
2018-03-25T06:05:38.631Z,50.27
2018-03-25T06:08:06.997Z,55.60
2018-03-25T06:10:35.381Z,54.40
2018-03-25T06:13:03.812Z,49.30
2018-03-25T06:15:32.208Z,54.30
2018-03-25T06:18:00.665Z,55.17
2018-03-25T06:20:29.030Z,39.43
2018-03-25T06:22:57.545Z,40.33
2018-03-25T06:25:25.992Z,49.40
2018-03-25T06:27:54.388Z,54.03
2018-03-25T06:30:22.789Z,47.63
2018-03-25T06:32:51.179Z,50.27
2018-03-25T06:35:19.584Z,47.20
2018-03-25T06:37:48.794Z,50.73
2018-03-25T06:40:17.162Z,46.23
2018-03-25T06:42:46.731Z,42.70
2018-03-25T06:45:15.104Z,55.13
2018-03-25T06:47:43.503Z,46.17
2018-03-25T06:50:11.889Z,52.17
2018-03-25T06:52:41.065Z,49.07
2018-03-25T06:55:09.432Z,44.97
2018-03-25T06:57:37.859Z,44.17
2018-03-25T07:00:06.325Z,45.37
2018-03-25T07:02:35.452Z,49.87
2018-03-25T07:05:03.866Z,43.70
2018-03-25T07:07:32.237Z,49.37
2018-03-25T07:10:00.664Z,47.50
2018-03-25T07:12:29.084Z,49.03
2018-03-25T07:14:57.884Z,46.37
2018-03-25T07:17:26.296Z,48.03
2018-03-25T07:19:55.424Z,49.83
2018-03-25T07:22:23.884Z,45.13
2018-03-25T07:24:53.085Z,48.53
2018-03-25T07:27:21.490Z,47.13
2018-03-25T07:29:49.963Z,48.50
2018-03-25T07:32:19.374Z,48.97
2018-03-25T07:34:47.769Z,47.53
2018-03-25T07:37:16.156Z,44.50
2018-03-25T07:39:44.741Z,46.43
2018-03-25T07:42:13.118Z,45.73
2018-03-25T07:44:41.514Z,45.13
2018-03-25T07:47:09.900Z,46.87
2018-03-25T07:49:39.032Z,46.90
2018-03-25T07:52:08.260Z,46.90
2018-03-25T07:54:36.696Z,48.47
2018-03-25T07:57:05.075Z,49.20
2018-03-25T07:59:33.468Z,44.17
2018-03-25T08:02:01.868Z,46.93
2018-03-25T08:04:30.287Z,48.20
2018-03-25T08:06:59.424Z,42.20
2018-03-25T08:09:27.865Z,44.90
2018-03-25T08:11:56.989Z,46.10
2018-03-25T08:14:25.432Z,46.93
2018-03-25T08:16:54.576Z,45.03
2018-03-25T08:19:22.970Z,43.13
2018-03-25T08:21:51.377Z,46.40
2018-03-25T08:24:19.800Z,47.07
2018-03-25T08:26:48.202Z,42.23
2018-03-25T08:29:16.630Z,44.50
2018-03-25T08:31:45.763Z,40.93
2018-03-25T08:34:14.172Z,41.70
2018-03-25T08:36:43.454Z,45.70
2018-03-25T08:39:11.807Z,43.13
2018-03-25T08:41:42.212Z,42.23
2018-03-25T08:44:10.693Z,42.30
2018-03-25T08:46:39.193Z,41.60
2018-03-25T08:49:07.604Z,41.73
2018-03-25T08:51:36.021Z,45.33
2018-03-25T08:54:05.203Z,39.57
2018-03-25T08:56:33.979Z,39.23
2018-03-25T08:59:02.402Z,38.07
2018-03-25T09:01:31.700Z,39.47
2018-03-25T09:04:00.181Z,40.00
2018-03-25T09:06:28.623Z,39.50
2018-03-25T09:08:57.107Z,41.13
2018-03-25T09:11:25.533Z,37.20
2018-03-25T09:13:53.920Z,39.77
2018-03-25T09:16:22.383Z,42.43
2018-03-25T09:18:51.243Z,41.10
2018-03-25T09:21:19.728Z,40.30
2018-03-25T09:23:48.122Z,36.33
2018-03-25T09:26:17.034Z,42.07
2018-03-25T09:28:45.921Z,38.07
2018-03-25T09:31:14.342Z,38.77
2018-03-25T09:33:42.777Z,39.10
2018-03-25T09:36:12.312Z,40.70
2018-03-25T09:38:41.980Z,35.73
2018-03-25T09:41:10.408Z,36.47
2018-03-25T09:43:40.405Z,34.60
2018-03-25T09:46:08.814Z,35.47
2018-03-25T09:48:38.124Z,32.87
2018-03-25T09:51:06.612Z,30.70
2018-03-25T09:53:35.696Z,35.03
2018-03-25T09:56:04.505Z,33.73
2018-03-25T09:58:33.482Z,32.00
2018-03-25T10:01:07.689Z,31.40
2018-03-25T10:03:36.888Z,32.50
2018-03-25T10:06:06.609Z,29.13
2018-03-25T10:08:35.033Z,29.63
2018-03-25T10:11:03.802Z,32.13
2018-03-25T10:13:32.293Z,33.13
2018-03-25T10:16:01.217Z,31.37
2018-03-25T10:18:30.412Z,34.50
2018-03-25T10:20:58.803Z,27.73
2018-03-25T10:23:28.003Z,28.13
2018-03-25T10:25:57.555Z,27.57
2018-03-25T10:28:26.387Z,28.77
2018-03-25T10:30:55.896Z,25.23
2018-03-25T10:33:24.926Z,26.10
2018-03-25T10:35:53.351Z,29.80
2018-03-25T10:38:21.883Z,24.97
2018-03-25T10:40:50.387Z,24.83
2018-03-25T10:43:18.790Z,21.23
2018-03-25T10:45:47.297Z,25.03
2018-03-25T10:48:17.434Z,27.87
2018-03-25T10:50:45.877Z,23.17
2018-03-25T10:53:14.294Z,25.03
2018-03-25T10:55:42.716Z,24.37
2018-03-25T10:58:11.595Z,24.43
2018-03-25T11:00:39.989Z,24.53
2018-03-25T11:03:08.353Z,24.37
2018-03-25T11:05:38.444Z,24.47
2018-03-25T11:08:06.919Z,26.37
2018-03-25T11:10:35.322Z,24.27
2018-03-25T11:13:03.921Z,26.70
2018-03-25T11:15:32.336Z,25.93
2018-03-25T11:18:01.310Z,25.77
2018-03-25T11:20:30.970Z,26.27
2018-03-25T11:22:59.742Z,26.97
2018-03-25T11:25:28.194Z,25.73
2018-03-25T11:27:57.352Z,25.43
2018-03-25T11:30:26.007Z,26.63
2018-03-25T11:32:54.590Z,28.97
2018-03-25T11:35:23.049Z,28.47
2018-03-25T11:37:51.442Z,27.30
2018-03-25T11:40:19.891Z,28.50
2018-03-25T11:42:49.071Z,27.33
2018-03-25T11:45:17.443Z,27.60
2018-03-25T11:47:45.841Z,25.63
2018-03-25T11:50:14.971Z,31.17
2018-03-25T11:52:43.449Z,28.27
2018-03-25T11:55:11.831Z,27.97
2018-03-25T11:57:40.296Z,28.43
2018-03-25T12:00:08.733Z,29.30
2018-03-25T12:02:37.165Z,30.00
2018-03-25T12:05:05.572Z,30.80
2018-03-25T12:07:33.954Z,29.13
2018-03-25T12:10:02.393Z,27.60
2018-03-25T12:12:30.790Z,27.97
2018-03-25T12:14:59.288Z,29.00
2018-03-25T12:17:27.709Z,29.10
2018-03-25T12:19:56.578Z,29.30
2018-03-25T12:22:24.991Z,26.53
2018-03-25T12:24:53.359Z,27.63
2018-03-25T12:27:21.819Z,29.00
2018-03-25T12:29:50.229Z,27.47
2018-03-25T12:32:18.632Z,29.87
2018-03-25T12:34:47.022Z,26.13
2018-03-25T12:37:15.429Z,27.50
2018-03-25T12:39:43.842Z,28.00
2018-03-25T12:42:12.298Z,27.90
2018-03-25T12:44:41.516Z,27.53
2018-03-25T12:47:10.009Z,27.80
2018-03-25T12:49:38.442Z,30.33
2018-03-25T12:52:06.854Z,27.90
2018-03-25T12:54:35.296Z,28.57
2018-03-25T12:57:03.723Z,25.97
2018-03-25T12:59:32.166Z,28.40
2018-03-25T13:02:01.391Z,27.57
2018-03-25T13:04:29.783Z,26.50
2018-03-25T13:06:58.187Z,28.60
2018-03-25T13:09:26.609Z,28.63
2018-03-25T13:11:55.769Z,30.03
2018-03-25T13:14:24.166Z,25.83
2018-03-25T13:16:52.579Z,26.77
2018-03-25T13:19:21.013Z,31.80
2018-03-25T13:21:49.411Z,29.37
2018-03-25T13:24:18.600Z,26.90
2018-03-25T13:26:46.999Z,25.53
2018-03-25T13:29:15.782Z,27.77
2018-03-25T13:31:45.002Z,28.17
2018-03-25T13:34:13.633Z,27.67
2018-03-25T13:36:42.065Z,27.87
2018-03-25T13:39:10.499Z,27.57
2018-03-25T13:41:38.926Z,28.93
2018-03-25T13:44:07.321Z,29.53
2018-03-25T13:46:35.762Z,31.33
2018-03-25T13:49:04.911Z,26.17
2018-03-25T13:51:33.305Z,30.40
2018-03-25T13:54:01.775Z,28.93
2018-03-25T13:56:30.147Z,28.40
2018-03-25T13:58:58.580Z,27.90
2018-03-25T14:01:27.018Z,28.97
2018-03-25T14:03:55.387Z,30.27
2018-03-25T14:06:23.829Z,31.40
2018-03-25T14:08:52.220Z,28.80
2018-03-25T14:11:20.630Z,28.53
2018-03-25T14:13:49.057Z,29.73
2018-03-25T14:16:17.464Z,33.07
2018-03-25T14:18:45.908Z,31.20
2018-03-25T14:21:14.316Z,27.23
2018-03-25T14:23:42.735Z,29.87
2018-03-25T14:26:11.143Z,30.67
2018-03-25T14:28:39.545Z,28.00
2018-03-25T14:31:08.008Z,28.00
2018-03-25T14:33:37.167Z,27.63
2018-03-25T14:36:05.622Z,28.73
2018-03-25T14:38:33.983Z,28.50
2018-03-25T14:41:02.372Z,28.07
2018-03-25T14:43:30.781Z,29.40
2018-03-25T14:45:59.975Z,28.80
2018-03-25T14:48:28.395Z,28.37
2018-03-25T14:50:56.761Z,26.17
2018-03-25T14:53:25.193Z,29.80
2018-03-25T14:55:53.591Z,29.80
2018-03-25T14:58:22.370Z,28.40
2018-03-25T15:00:50.801Z,28.40
2018-03-25T15:03:19.228Z,29.03
2018-03-25T15:05:47.637Z,29.40
2018-03-25T15:08:16.070Z,29.43
2018-03-25T15:10:44.506Z,28.63
2018-03-25T15:13:12.917Z,25.50
2018-03-25T15:15:41.750Z,30.33
2018-03-25T15:18:10.901Z,27.30
2018-03-25T15:20:39.342Z,29.20
2018-03-25T15:23:07.829Z,27.17
2018-03-25T15:25:36.233Z,28.07
2018-03-25T15:28:04.708Z,29.57
2018-03-25T15:30:33.139Z,29.00
2018-03-25T15:33:02.696Z,30.00
2018-03-25T15:35:31.083Z,31.93
2018-03-25T15:37:59.550Z,27.50
2018-03-25T15:40:28.003Z,29.20
2018-03-25T15:42:56.377Z,28.40
2018-03-25T15:45:24.775Z,28.17
2018-03-25T15:47:53.227Z,28.60
2018-03-25T15:50:21.643Z,28.93
2018-03-25T15:52:50.092Z,27.93
2018-03-25T15:55:18.495Z,30.90
2018-03-25T15:57:46.914Z,28.63
2018-03-25T16:00:15.306Z,29.47
2018-03-25T16:02:43.761Z,29.53
2018-03-25T16:05:12.172Z,27.97
2018-03-25T16:07:40.585Z,29.40
2018-03-25T16:10:08.991Z,25.50
2018-03-25T16:12:37.358Z,28.43
2018-03-25T16:15:13.743Z,26.87
2018-03-25T16:17:42.933Z,27.43
2018-03-25T16:20:11.366Z,25.33
2018-03-25T16:22:39.798Z,28.37
2018-03-25T16:25:08.216Z,26.80
2018-03-25T16:27:36.706Z,26.97
2018-03-25T16:30:05.168Z,27.27
2018-03-25T16:32:33.590Z,28.37
2018-03-25T16:35:02.012Z,27.97
2018-03-25T16:37:31.197Z,28.20
2018-03-25T16:39:59.604Z,28.00
2018-03-25T16:42:27.987Z,27.67
2018-03-25T16:44:56.717Z,26.63
2018-03-25T16:47:25.154Z,26.13
2018-03-25T16:49:53.591Z,27.73
2018-03-25T16:52:21.994Z,27.73
2018-03-25T16:54:50.448Z,28.17
2018-03-25T16:57:18.844Z,27.10
2018-03-25T16:59:50.463Z,27.83
2018-03-25T17:02:18.889Z,26.60
2018-03-25T17:04:48.041Z,26.90
2018-03-25T17:07:16.542Z,28.07
2018-03-25T17:09:44.944Z,27.50
2018-03-25T17:12:14.098Z,26.17
2018-03-25T17:14:42.519Z,26.67
2018-03-25T17:17:11.731Z,29.63
2018-03-25T17:19:40.200Z,28.97
2018-03-25T17:22:09.347Z,30.47
2018-03-25T17:24:37.819Z,27.93
2018-03-25T17:27:06.247Z,29.87
2018-03-25T17:29:35.444Z,26.97
2018-03-25T17:32:04.646Z,27.83
2018-03-25T17:34:33.817Z,25.23
2018-03-25T17:37:02.262Z,27.10
2018-03-25T17:39:30.624Z,30.03
2018-03-25T17:42:01.020Z,30.73
2018-03-25T17:44:30.223Z,25.73
2018-03-25T17:46:58.623Z,29.00
2018-03-25T17:49:27.015Z,25.10
2018-03-25T17:51:55.404Z,27.33
2018-03-25T17:54:23.859Z,27.70
2018-03-25T17:56:52.229Z,27.30
2018-03-25T17:59:20.664Z,26.20
2018-03-25T18:01:50.075Z,26.87
2018-03-25T18:04:19.224Z,29.37
2018-03-25T18:06:47.632Z,29.77
2018-03-25T18:09:16.019Z,30.40
2018-03-25T18:11:44.376Z,26.27
2018-03-25T18:14:13.217Z,28.27
2018-03-25T18:16:41.606Z,27.67
2018-03-25T18:19:09.990Z,26.60
2018-03-25T18:21:38.380Z,24.17
2018-03-25T18:24:07.131Z,27.23
2018-03-25T18:26:35.540Z,29.57
2018-03-25T18:29:03.917Z,28.87
2018-03-25T18:31:32.364Z,27.13
2018-03-25T18:34:00.848Z,28.80
2018-03-25T18:36:29.274Z,29.73
2018-03-25T18:38:57.685Z,27.43
2018-03-25T18:41:26.886Z,28.20
2018-03-25T18:43:56.057Z,27.87
2018-03-25T18:46:24.432Z,26.13
2018-03-25T18:48:53.636Z,27.30
2018-03-25T18:51:22.024Z,29.20
2018-03-25T18:53:50.818Z,27.67
2018-03-25T18:56:26.410Z,28.63
2018-03-25T18:58:55.047Z,28.97
2018-03-25T19:01:24.185Z,27.80
2018-03-25T19:03:52.614Z,29.30
2018-03-25T19:06:21.006Z,26.00
2018-03-25T19:08:50.136Z,26.97
2018-03-25T19:11:18.697Z,29.93
2018-03-25T19:13:47.130Z,30.73
2018-03-25T19:16:15.610Z,30.17
2018-03-25T19:18:44.024Z,32.13
2018-03-25T19:21:14.039Z,28.13
2018-03-25T19:23:43.549Z,32.53
2018-03-25T19:26:12.690Z,32.90
2018-03-25T19:28:41.083Z,27.90
2018-03-25T19:31:11.605Z,27.03
2018-03-25T19:33:40.831Z,31.13
2018-03-25T19:36:09.269Z,34.37
2018-03-25T19:38:37.668Z,33.90
2018-03-25T19:41:06.040Z,34.43
2018-03-25T19:43:34.468Z,33.97
2018-03-25T19:46:02.879Z,30.57
2018-03-25T19:48:31.281Z,34.27
2018-03-25T19:50:59.693Z,33.67
2018-03-25T19:53:28.868Z,35.73
2018-03-25T19:55:57.283Z,36.23
2018-03-25T19:58:25.734Z,36.70
2018-03-25T20:00:54.115Z,33.43
2018-03-25T20:03:23.305Z,29.33
2018-03-25T20:05:51.736Z,33.50
2018-03-25T20:08:20.198Z,37.23
2018-03-25T20:10:48.993Z,39.33
2018-03-25T20:13:17.438Z,33.90
2018-03-25T20:15:46.459Z,32.27
2018-03-25T20:18:16.637Z,32.10
2018-03-25T20:20:45.293Z,31.77
2018-03-25T20:23:14.134Z,29.03
2018-03-25T20:25:43.342Z,34.70
2018-03-25T20:28:13.003Z,31.97
2018-03-25T20:30:41.415Z,37.43
2018-03-25T20:33:10.639Z,35.17
2018-03-25T20:35:39.047Z,36.20
2018-03-25T20:38:07.433Z,35.33
2018-03-25T20:40:35.964Z,31.77
2018-03-25T20:43:04.500Z,37.00
2018-03-25T20:45:37.390Z,35.93
2018-03-25T20:48:45.279Z,33.13
2018-03-25T20:51:14.809Z,37.67
2018-03-25T20:56:37.786Z,36.27
